Time;durP1;ratioP1;P1;durP2;ratioP2;P2;SDS_P1;SDS_P2;PMS_P1;PMS_P2;Temp;Humidity;BMP_temperature;BMP_pressure;BME280_temperature;BME280_humidity;BME280_pressure;Samples;Min_cycle;Max_cycle;Signal;HPM_P1;HPM_P2
2021/07/10 00:01:35;;;;;;;6.13;5.55;;;;;;;22.31;73.60;101335.81;4906870;28;103997;-92
2021/07/10 00:04:06;;;;;;;5.85;5.35;;;;;;;22.30;73.75;101330.63;4890438;28;103089;-92
2021/07/10 00:06:33;;;;;;;7.43;5.50;;;;;;;22.29;73.69;101338.13;4890282;28;102884;-91
2021/07/10 00:08:59;;;;;;;5.72;5.10;;;;;;;22.29;73.81;101335.38;4897699;28;102585;-92
2021/07/10 00:11:26;;;;;;;7.38;5.93;;;;;;;22.29;73.79;101331.78;4888686;28;103899;-88
2021/07/10 00:13:53;;;;;;;19.95;6.38;;;;;;;22.29;73.72;101327.03;4894296;28;102762;-90
2021/07/10 00:16:19;;;;;;;6.88;5.30;;;;;;;22.28;73.72;101333.72;4891110;28;102745;-89
2021/07/10 00:18:46;;;;;;;5.60;5.10;;;;;;;22.29;73.75;101326.25;4924167;28;103133;-89
2021/07/10 00:21:17;;;;;;;5.63;5.13;;;;;;;22.29;73.79;101321.50;4891151;28;104614;-90
2021/07/10 00:23:44;;;;;;;5.70;5.18;;;;;;;22.29;73.76;101315.97;4890732;28;102358;-90
2021/07/10 00:26:10;;;;;;;6.30;5.30;;;;;;;22.28;73.71;101319.84;4888404;28;102218;-88
2021/07/10 00:28:37;;;;;;;6.00;5.40;;;;;;;22.29;73.63;101321.50;4897419;28;102691;-89
2021/07/10 00:31:03;;;;;;;5.97;5.40;;;;;;;22.29;73.68;101323.47;4893105;28;103852;-88
2021/07/10 00:33:30;;;;;;;6.35;5.18;;;;;;;22.29;73.71;101332.59;4956278;28;103173;-89
2021/07/10 00:35:56;;;;;;;7.47;5.22;;;;;;;22.29;73.72;101321.50;4903369;28;102451;-88
2021/07/10 00:38:24;;;;;;;6.22;5.43;;;;;;;22.27;73.61;101323.78;4893899;28;102535;-89
2021/07/10 00:41:04;;;;;;;5.70;5.13;;;;;;;22.28;73.82;101314.31;4923373;28;102827;-89
2021/07/10 00:43:31;;;;;;;6.65;5.35;;;;;;;22.29;73.83;101315.16;4892670;28;102229;-89
2021/07/10 00:45:58;;;;;;;6.25;5.53;;;;;;;22.27;73.71;101318.25;4890093;28;102426;-89
2021/07/10 00:48:25;;;;;;;5.80;5.30;;;;;;;22.28;73.69;101311.53;4899996;28;102336;-89
2021/07/10 00:50:52;;;;;;;5.85;5.25;;;;;;;22.27;73.49;101323.78;4890240;28;103860;-89
2021/07/10 00:53:18;;;;;;;5.82;5.20;;;;;;;22.28;73.45;101324.59;4937080;28;102498;-89
2021/07/10 00:55:55;;;;;;;5.53;5.03;;;;;;;22.27;73.69;101318.25;4890332;28;102612;-89
2021/07/10 00:58:21;;;;;;;6.03;5.15;;;;;;;22.27;73.61;101315.47;4897853;28;102536;-88
2021/07/10 01:00:48;;;;;;;6.45;5.45;;;;;;;22.27;73.70;101309.91;4912242;28;103061;-87
2021/07/10 01:03:14;;;;;;;5.97;5.38;;;;;;;22.26;73.47;101311.06;4936644;28;102556;-88
2021/07/10 01:05:41;;;;;;;5.65;5.15;;;;;;;22.25;73.59;101306.69;4917372;28;103348;-89
2021/07/10 01:08:08;;;;;;;5.63;5.00;;;;;;;22.26;73.50;101305.53;4912823;28;102267;-89
2021/07/10 01:10:35;;;;;;;7.53;5.38;;;;;;;22.26;73.37;101302.75;4897990;28;102421;-90
2021/07/10 01:13:03;;;;;;;5.30;4.90;;;;;;;22.26;73.85;101305.53;4911726;28;102614;-90
2021/07/10 01:15:29;;;;;;;5.10;4.60;;;;;;;22.26;73.72;101313.84;4893086;28;102327;-90
2021/07/10 01:17:59;;;;;;;5.10;4.60;;;;;;;22.26;73.72;101304.72;4900245;28;102226;-89
2021/07/10 01:20:27;;;;;;;5.50;4.93;;;;;;;22.27;73.60;101300.78;4895593;28;103885;-89
2021/07/10 01:22:57;;;;;;;5.95;4.80;;;;;;;22.26;73.56;101305.53;4889632;28;102655;-88
2021/07/10 01:25:25;;;;;;;6.70;5.10;;;;;;;22.26;73.56;101308.31;4886208;28;102412;-88
2021/07/10 01:27:52;;;;;;;5.83;5.30;;;;;;;22.26;73.66;101308.31;4896393;28;102109;-87
2021/07/10 01:30:21;;;;;;;5.45;4.95;;;;;;;22.26;73.78;101307.50;4891028;28;103296;-88
2021/07/10 01:32:48;;;;;;;;;;;;;;;22.26;73.54;101311.06;4940708;28;102127;-88
2021/07/10 01:35:16;;;;;;;6.10;5.15;;;;;;;22.25;73.54;101303.06;4890530;28;102250;-89
2021/07/10 01:37:43;;;;;;;5.53;5.03;;;;;;;22.26;73.75;101305.53;4922959;28;102623;-88
2021/07/10 01:40:14;;;;;;;5.65;5.00;;;;;;;22.25;73.64;101303.91;4930599;28;103842;-89
2021/07/10 01:42:42;;;;;;;6.65;5.03;;;;;;;22.25;73.61;101301.16;4934565;28;102440;-86
2021/07/10 01:45:12;;;;;;;5.55;4.85;;;;;;;22.27;73.64;101307.16;4894591;28;102388;-86
2021/07/10 01:47:38;;;;;;;;;;;;;;;22.25;73.44;101300.31;4891615;28;102161;-86
2021/07/10 01:50:08;;;;;;;5.22;4.72;;;;;;;22.25;73.71;101312.22;4936058;28;103762;-86
2021/07/10 01:52:34;;;;;;;5.45;4.95;;;;;;;22.25;73.74;101303.91;4895806;28;102053;-86
2021/07/10 01:55:02;;;;;;;5.60;5.10;;;;;;;22.26;73.85;101311.06;4888202;28;102369;-86
2021/07/10 01:57:30;;;;;;;5.93;5.10;;;;;;;22.25;74.00;101303.91;4900310;28;103458;-86
2021/07/10 01:59:56;;;;;;;5.40;4.60;;;;;;;22.23;74.20;101303.44;4893565;28;103934;-86
2021/07/10 02:02:23;;;;;;;5.20;4.70;;;;;;;22.26;73.94;101310.28;4879970;28;102074;-86
2021/07/10 02:04:52;;;;;;;5.53;5.03;;;;;;;22.25;74.18;101309.47;4904267;28;102152;-87
2021/07/10 02:07:19;;;;;;;5.18;4.78;;;;;;;22.23;74.21;101306.19;4895349;28;102302;-86
2021/07/10 02:09:45;;;;;;;6.78;4.53;;;;;;;22.23;74.07;101303.44;4907340;28;104447;-83
2021/07/10 02:12:14;;;;;;;8.55;4.85;;;;;;;22.23;74.25;101306.19;4923409;28;102090;-84
2021/07/10 02:14:42;;;;;;;5.30;4.80;;;;;;;22.23;74.22;101300.66;4914933;28;102405;-84
2021/07/10 02:17:08;;;;;;;5.13;4.70;;;;;;;22.23;74.17;101300.66;4889818;28;102536;-85
2021/07/10 02:19:36;;;;;;;5.80;5.20;;;;;;;22.22;74.38;101304.59;4913718;28;103313;-85
2021/07/10 02:22:04;;;;;;;5.70;5.10;;;;;;;22.23;74.22;101299.84;4897947;28;102776;-85
2021/07/10 02:24:30;;;;;;;5.10;4.60;;;;;;;22.24;74.17;101309.78;4917784;28;102549;-85
2021/07/10 02:26:57;;;;;;;5.05;4.57;;;;;;;22.23;74.29;101306.19;4932413;28;102350;-85
2021/07/10 02:29:23;;;;;;;5.35;4.85;;;;;;;22.23;74.08;101311.75;4901508;28;103971;-88
2021/07/10 02:31:52;;;;;;;5.20;4.80;;;;;;;22.23;74.20;101317.28;4890412;28;105243;-87
2021/07/10 02:34:18;;;;;;;5.45;4.72;;;;;;;22.23;74.34;101314.53;4892136;28;102591;-87
2021/07/10 02:36:45;;;;;;;6.30;5.22;;;;;;;22.23;74.23;101317.28;4915792;28;102608;-88
2021/07/10 02:39:13;;;;;;;5.53;5.03;;;;;;;22.22;74.33;101312.09;4891479;28;103840;-87
2021/07/10 02:41:39;;;;;;;5.18;4.75;;;;;;;22.21;74.48;101308.47;4895843;28;102457;-87
2021/07/10 02:44:06;;;;;;;5.38;4.45;;;;;;;22.22;74.44;101320.41;4909940;28;102294;-87
2021/07/10 02:46:35;;;;;;;5.53;5.00;;;;;;;22.23;74.92;101320.06;4889120;28;102204;-88
2021/07/10 02:49:03;;;;;;;5.65;5.00;;;;;;;22.24;74.49;101312.56;4897064;28;103368;-88
2021/07/10 02:51:30;;;;;;;5.70;5.10;;;;;;;22.22;74.53;101310.13;4934478;28;102137;-89
2021/07/10 02:53:57;;;;;;;5.40;4.90;;;;;;;22.22;74.60;101310.13;4936138;28;102736;-88
2021/07/10 02:56:24;;;;;;;4.97;4.47;;;;;;;22.22;74.51;101310.13;4931149;28;102619;-88
2021/07/10 02:58:53;;;;;;;5.30;4.80;;;;;;;22.22;74.68;101314.88;4915453;28;104016;-88
2021/07/10 03:01:20;;;;;;;4.88;4.38;;;;;;;22.22;74.53;101310.13;4895191;28;102093;-87
2021/07/10 03:03:47;;;;;;;5.03;4.63;;;;;;;22.23;74.32;101313.72;4890060;28;102326;-87
2021/07/10 03:06:15;;;;;;;4.60;4.20;;;;;;;22.22;74.46;101309.31;4891380;28;102491;-86
2021/07/10 03:08:42;;;;;;;5.25;4.75;;;;;;;22.21;74.50;101310.44;4908671;28;103913;-86
2021/07/10 03:11:10;;;;;;;5.15;4.75;;;;;;;22.20;74.45;101312.41;4890899;28;102128;-85
2021/07/10 03:13:57;;;;;;;5.53;5.03;;;;;;;22.22;74.60;101315.69;4918942;28;102250;-87
2021/07/10 03:16:25;;;;;;;5.32;4.82;;;;;;;22.20;74.58;101317.97;4900878;28;102541;-87
2021/07/10 03:18:52;;;;;;;4.80;4.40;;;;;;;22.22;74.26;101320.41;4922793;28;102986;-87
2021/07/10 03:21:21;;;;;;;6.53;4.95;;;;;;;22.22;74.27;101318.44;4897145;28;102054;-87
2021/07/10 03:23:58;;;;;;;6.65;4.70;;;;;;;22.23;74.26;101320.06;4891316;28;103439;-87
2021/07/10 03:26:25;;;;;;;7.70;4.90;;;;;;;22.22;74.53;101310.13;4892754;28;102222;-87
2021/07/10 03:28:52;;;;;;;5.43;4.90;;;;;;;22.23;74.28;101320.06;4902750;28;103986;-87
2021/07/10 03:31:18;;;;;;;5.28;4.78;;;;;;;22.23;74.25;101311.75;4938422;28;102202;-87
2021/07/10 03:33:49;;;;;;;5.13;4.63;;;;;;;22.23;74.61;101311.75;4949370;28;102546;-87
2021/07/10 03:36:15;;;;;;;6.35;4.97;;;;;;;22.26;74.65;101311.06;4898519;28;102840;-87
2021/07/10 03:38:44;;;;;;;5.43;4.78;;;;;;;22.23;74.37;101300.66;4906069;28;104538;-87
2021/07/10 03:41:13;;;;;;;4.68;4.28;;;;;;;22.26;74.57;101308.31;4918528;28;102396;-87
2021/07/10 03:43:41;;;;;;;5.43;4.70;;;;;;;22.26;74.47;101307.50;4902056;28;102200;-87
2021/07/10 03:46:07;;;;;;;5.00;4.50;;;;;;;22.26;74.36;101316.63;4906754;28;102430;-87
2021/07/10 03:48:34;;;;;;;5.32;4.53;;;;;;;22.26;74.22;101300.00;4888011;28;103943;-90
2021/07/10 03:51:01;;;;;;;4.43;4.13;;;;;;;22.26;74.41;101300.00;4893680;28;102201;-90
2021/07/10 03:53:28;;;;;;;4.80;4.40;;;;;;;22.26;74.04;101294.44;4895923;28;102581;-89
2021/07/10 03:55:56;;;;;;;4.60;4.20;;;;;;;22.27;74.46;101296.06;4892947;28;103676;-91
2021/07/10 03:58:23;;;;;;;5.20;4.70;;;;;;;22.28;74.40;101292.13;4924626;28;102843;-90
2021/07/10 04:00:49;;;;;;;4.72;4.25;;;;;;;22.27;74.48;101287.75;4932828;28;102371;-88
2021/07/10 04:03:16;;;;;;;4.82;4.43;;;;;;;22.28;74.40;101289.34;4891160;28;102272;-89
2021/07/10 04:05:42;;;;;;;5.10;4.60;;;;;;;22.28;74.21;101286.59;4893601;28;102135;-89
2021/07/10 04:08:09;;;;;;;5.13;4.70;;;;;;;22.28;74.38;101289.34;4890592;28;102725;-88
2021/07/10 04:10:35;;;;;;;5.50;4.50;;;;;;;22.28;74.58;101292.13;4893622;28;102655;-89
2021/07/10 04:13:09;;;;;;;9.27;4.95;;;;;;;22.30;74.61;101289.03;4908976;28;102380;-88
2021/07/10 04:15:44;;;;;;;5.50;4.43;;;;;;;22.29;74.48;101288.22;4895405;28;102229;-89
2021/07/10 04:18:11;;;;;;;5.35;4.85;;;;;;;22.30;74.59;101278.75;4891313;28;104667;-89
2021/07/10 04:20:38;;;;;;;4.35;4.05;;;;;;;22.30;74.56;101281.53;4923351;28;102611;-88
2021/07/10 04:23:05;;;;;;;4.63;4.25;;;;;;;22.30;74.56;101278.75;4890809;28;102182;-88
2021/07/10 04:25:32;;;;;;;5.13;4.55;;;;;;;22.30;74.32;101281.53;4902862;28;102400;-87
2021/07/10 04:27:58;;;;;;;5.70;5.07;;;;;;;22.31;74.70;101283.13;4911588;28;103880;-88
2021/07/10 04:30:26;;;;;;;4.85;4.45;;;;;;;22.30;74.21;101287.06;4895516;28;102391;-87
2021/07/10 04:32:53;;;;;;;5.18;4.68;;;;;;;22.33;74.45;101279.25;4897326;28;102142;-87
2021/07/10 04:35:20;;;;;;;5.65;4.80;;;;;;;22.32;74.77;101281.19;4907350;28;102324;-86
2021/07/10 04:37:49;;;;;;;5.00;4.60;;;;;;;22.33;74.29;101276.47;4893155;28;104273;-86
2021/07/10 04:40:16;;;;;;;4.72;4.32;;;;;;;22.34;74.61;101269.75;4894406;28;102039;-86
2021/07/10 04:42:43;;;;;;;7.63;5.63;;;;;;;22.34;74.56;101275.31;4908952;28;102259;-86
2021/07/10 04:45:12;;;;;;;4.60;4.20;;;;;;;22.34;74.69;101273.34;4935497;28;102600;-85
2021/07/10 04:47:40;;;;;;;5.00;4.47;;;;;;;22.35;74.42;101268.59;4892352;28;103837;-86
2021/07/10 04:50:08;;;;;;;5.07;4.68;;;;;;;22.35;74.54;101272.19;4908347;28;102650;-86
2021/07/10 04:52:35;;;;;;;5.45;4.95;;;;;;;22.37;74.40;101269.09;4920134;28;102110;-86
2021/07/10 04:55:02;;;;;;;5.70;4.72;;;;;;;22.37;74.61;101277.41;4896876;28;102514;-86
2021/07/10 04:57:29;;;;;;;5.40;4.90;;;;;;;22.36;74.40;101270.22;4901447;28;103864;-86
2021/07/10 04:59:55;;;;;;;5.47;4.97;;;;;;;22.37;74.60;101282.97;4931673;28;102111;-87
2021/07/10 05:02:22;;;;;;;4.90;4.50;;;;;;;22.37;74.38;101286.53;4901666;28;102326;-86
2021/07/10 05:04:50;;;;;;;5.45;4.88;;;;;;;22.38;74.30;101285.38;4897197;28;102448;-87
2021/07/10 05:07:16;;;;;;;5.10;4.60;;;;;;;22.38;74.58;101279.03;4896992;28;104119;-87
2021/07/10 05:09:43;;;;;;;5.13;4.63;;;;;;;22.40;74.58;101276.75;4895705;28;102157;-87
2021/07/10 05:12:10;;;;;;;4.50;4.10;;;;;;;22.40;74.41;101276.75;4900456;28;102238;-87
2021/07/10 05:14:36;;;;;;;5.38;4.97;;;;;;;22.41;74.41;101278.34;4942908;28;102545;-87
2021/07/10 05:17:03;;;;;;;5.55;5.05;;;;;;;22.41;74.45;101283.91;4901010;28;102728;-86
2021/07/10 05:19:30;;;;;;;4.88;4.35;;;;;;;22.42;74.31;101272.47;4895895;28;104662;-88
2021/07/10 05:21:58;;;;;;;5.65;4.70;;;;;;;22.43;74.33;101271.34;4895908;28;102754;-85
2021/07/10 05:24:25;;;;;;;4.72;4.32;;;;;;;22.45;74.25;101273.75;4901018;28;102640;-84
2021/07/10 05:26:52;;;;;;;5.07;4.57;;;;;;;22.46;74.35;101280.91;4938136;28;103962;-84
2021/07/10 05:29:19;;;;;;;5.32;4.80;;;;;;;22.46;74.18;101278.13;4898517;28;102220;-84
2021/07/10 05:31:47;;;;;;;;;;;;;;;22.49;74.18;101275.50;4894851;28;102410;-84
2021/07/10 05:34:14;;;;;;;5.88;5.07;;;;;;;22.50;74.18;101268.00;4915226;28;102163;-83
2021/07/10 05:36:41;;;;;;;4.78;4.38;;;;;;;22.51;74.04;101266.84;4881173;28;103904;-83
2021/07/10 05:39:08;;;;;;;5.20;4.70;;;;;;;22.53;73.99;101270.09;4889835;28;102265;-86
2021/07/10 05:41:35;;;;;;;5.28;4.32;;;;;;;22.53;74.10;101254.25;4922020;28;102577;-85
2021/07/10 05:44:02;;;;;;;5.15;4.65;;;;;;;22.57;73.96;101251.63;4897527;28;102537;-87
2021/07/10 05:46:28;;;;;;;4.82;4.43;;;;;;;22.59;73.91;101246.56;4895398;28;102713;-83
2021/07/10 05:48:55;;;;;;;4.97;4.57;;;;;;;22.61;73.79;101255.34;4899281;28;102834;-83
2021/07/10 05:51:21;;;;;;;4.75;4.28;;;;;;;22.63;74.01;101261.34;4890919;28;102495;-83
2021/07/10 05:53:48;;;;;;;4.50;4.10;;;;;;;22.65;73.79;101255.50;4892141;28;102670;-83
2021/07/10 05:56:16;;;;;;;4.90;4.50;;;;;;;22.64;73.88;101254.66;4888048;28;104224;-83
2021/07/10 05:58:43;;;;;;;4.50;4.10;;;;;;;22.66;73.89;101255.13;4884871;28;102543;-83
2021/07/10 06:01:11;;;;;;;4.57;4.25;;;;;;;22.68;73.63;101255.59;4934472;28;102298;-84
2021/07/10 06:03:38;;;;;;;4.80;4.40;;;;;;;22.70;73.68;101252.50;4891289;28;102061;-83
2021/07/10 06:06:04;;;;;;;4.53;4.10;;;;;;;22.71;73.47;101257.69;4893750;28;102758;-83
2021/07/10 06:08:31;;;;;;;4.38;3.97;;;;;;;22.72;73.53;101251.00;4889527;28;103238;-83
2021/07/10 06:10:58;;;;;;;5.03;4.53;;;;;;;22.75;73.53;101249.50;4911439;28;102224;-86
2021/07/10 06:13:26;;;;;;;4.75;3.85;;;;;;;22.76;73.30;101240.84;4912785;28;102550;-86
2021/07/10 06:15:52;;;;;;;4.87;4.37;;;;;;;22.79;73.26;101245.72;4911839;28;104007;-85
2021/07/10 06:18:19;;;;;;;4.93;4.43;;;;;;;22.81;73.42;101247.34;4890192;28;102871;-87
2021/07/10 06:20:45;;;;;;;4.82;4.22;;;;;;;22.82;73.27;101248.94;4902905;28;102425;-86
2021/07/10 06:23:12;;;;;;;4.97;4.30;;;;;;;22.83;73.35;101245.84;4923401;28;102900;-86
2021/07/10 06:25:38;;;;;;;4.68;4.28;;;;;;;22.83;73.34;101245.84;4951154;28;102685;-88
2021/07/10 06:28:06;;;;;;;4.53;4.13;;;;;;;22.84;73.18;101241.09;4894096;28;102622;-88
2021/07/10 06:30:34;;;;;;;4.45;4.05;;;;;;;22.86;73.27;101236.81;4913396;28;103559;-89
2021/07/10 06:33:01;;;;;;;4.38;3.97;;;;;;;22.86;73.25;101250.69;4907412;28;102412;-88
2021/07/10 06:35:28;;;;;;;4.90;4.10;;;;;;;22.88;73.01;101248.41;4894202;28;102798;-88
2021/07/10 06:37:55;;;;;;;4.32;3.92;;;;;;;22.89;73.03;101238.91;4887790;28;102251;-87
2021/07/10 06:40:22;;;;;;;4.45;4.05;;;;;;;22.91;73.09;101241.34;4893196;28;102929;-87
2021/07/10 06:42:52;;;;;;;4.70;3.88;;;;;;;22.91;73.07;101239.38;4907898;28;102310;-87
2021/07/10 06:45:20;;;;;;;4.82;4.43;;;;;;;22.93;72.81;101230.75;4900446;28;103897;-87
2021/07/10 06:47:49;;;;;;;5.35;4.85;;;;;;;22.93;73.16;101223.22;4900768;28;102924;-87
2021/07/10 06:50:18;;;;;;;4.15;3.78;;;;;;;22.94;72.93;101227.63;4907422;28;102050;-87
2021/07/10 06:52:45;;;;;;;5.65;4.68;;;;;;;22.96;72.68;101232.84;4895649;28;102245;-87
2021/07/10 06:55:13;;;;;;;4.88;4.38;;;;;;;22.97;72.72;101221.41;4910533;28;103882;-88
2021/07/10 06:57:40;;;;;;;4.82;3.90;;;;;;;22.98;72.55;101219.44;4888365;28;102199;-88
2021/07/10 07:00:09;;;;;;;4.85;3.92;;;;;;;22.99;72.60;101221.03;4894777;28;102328;-88
2021/07/10 07:02:35;;;;;;;4.70;4.30;;;;;;;23.00;72.70;101226.25;4889854;28;102734;-88
2021/07/10 07:05:04;;;;;;;5.10;4.63;;;;;;;22.99;72.90;101221.84;4892626;28;104465;-88
2021/07/10 07:07:31;;;;;;;;;;;;;;;23.00;72.67;101222.66;4903262;28;101972;-87
2021/07/10 07:09:58;;;;;;;4.90;4.35;;;;;;;23.01;72.74;101225.09;4908241;28;102658;-86
2021/07/10 07:12:31;;;;;;;4.85;4.40;;;;;;;23.02;72.50;101221.16;4901356;28;102365;-87
2021/07/10 07:14:59;;;;;;;4.82;4.35;;;;;;;23.04;72.42;101220.81;4916232;28;103944;-86
2021/07/10 07:17:25;;;;;;;7.18;4.72;;;;;;;23.05;72.47;101219.69;4888917;28;102752;-86
2021/07/10 07:19:52;;;;;;;7.55;5.10;;;;;;;23.08;71.79;101223.72;4904066;28;102461;-85
2021/07/10 07:22:20;;;;;;;13.55;6.10;;;;;;;23.14;71.73;101214.03;4904628;28;102165;-87
2021/07/10 07:24:46;;;;;;;9.73;6.05;;;;;;;23.16;71.14;101209.75;4900472;28;102812;-88
2021/07/10 07:27:13;;;;;;;7.47;6.07;;;;;;;23.20;70.55;101213.44;4889209;28;102887;-90
2021/07/10 07:29:40;;;;;;;11.52;7.05;;;;;;;23.23;70.13;101210.00;4894608;28;102595;-87
2021/07/10 07:32:07;;;;;;;9.63;6.30;;;;;;;23.24;69.93;101213.56;4890748;28;102350;-87
2021/07/10 07:34:39;;;;;;;9.82;6.38;;;;;;;23.35;69.81;101211.16;4891591;28;102797;-91
2021/07/10 07:37:06;;;;;;;13.95;6.88;;;;;;;23.36;69.50;101210.78;4889468;28;102881;-91
2021/07/10 07:39:36;;;;;;;;;;;;;;;23.37;69.13;101203.28;4899677;28;103455;-95
2021/07/10 07:42:07;;;;;;;23.08;8.18;;;;;;;23.41;68.75;101204.22;4902403;28;102136;-93
2021/07/10 07:44:33;;;;;;;15.95;7.20;;;;;;;23.37;69.41;101204.09;4868518;28;104881;-93
2021/07/10 07:47:08;;;;;;;19.30;8.00;;;;;;;23.38;69.52;101204.91;4886339;28;102541;-92
2021/07/10 07:49:34;;;;;;;22.98;8.13;;;;;;;23.40;68.91;101214.50;4889440;28;103105;-92
2021/07/10 07:52:01;;;;;;;19.80;7.93;;;;;;;23.45;68.66;101205.16;4903601;28;102216;-91
2021/07/10 07:54:28;;;;;;;11.95;7.13;;;;;;;23.46;68.08;101204.78;4897550;28;103346;-90
2021/07/10 07:56:56;;;;;;;24.45;7.75;;;;;;;23.45;68.74;101213.47;4886437;28;102400;-94
2021/07/10 07:59:23;;;;;;;14.10;8.45;;;;;;;23.43;69.07;101213.00;4905466;28;102116;-96
2021/07/10 08:01:51;;;;;;;18.35;8.07;;;;;;;23.44;69.28;101209.06;4896856;28;102503;-94
2021/07/10 08:04:19;;;;;;;10.80;8.10;;;;;;;23.43;69.81;101213.00;4882975;28;104898;-96
2021/07/10 08:06:49;;;;;;;11.45;8.43;;;;;;;23.44;69.65;101203.50;4890963;28;102812;-92
2021/07/10 08:09:16;;;;;;;14.35;8.38;;;;;;;23.45;69.81;101199.59;4888013;28;101894;-93
2021/07/10 08:11:44;;;;;;;;;;;;;;;23.44;70.05;101197.94;4878785;28;102248;-94
2021/07/10 08:14:13;;;;;;;11.80;7.45;;;;;;;23.45;70.23;101196.81;4935748;28;103239;-94
2021/07/10 08:16:39;;;;;;;10.02;8.02;;;;;;;23.45;70.09;101199.59;4874305;28;103131;-88
2021/07/10 08:19:06;;;;;;;11.10;7.72;;;;;;;23.45;70.27;101199.59;4894756;28;102858;-86
2021/07/10 08:21:34;;;;;;;10.38;7.93;;;;;;;23.44;70.29;101197.94;4901786;28;102258;-89
2021/07/10 08:24:03;;;;;;;11.35;7.63;;;;;;;23.44;70.26;101197.94;4901445;28;103693;-91
2021/07/10 08:26:30;;;;;;;10.00;7.80;;;;;;;23.44;70.25;101201.56;4925343;28;102415;-87
2021/07/10 08:28:57;;;;;;;9.48;7.07;;;;;;;23.44;70.48;101197.94;4927157;28;102433;-88
2021/07/10 08:31:26;;;;;;;8.60;7.72;;;;;;;23.44;70.59;101196.00;4892415;28;102354;-88
2021/07/10 08:33:53;;;;;;;11.70;7.85;;;;;;;23.44;70.54;101197.94;4936306;28;104030;-90
2021/07/10 08:36:19;;;;;;;8.60;7.13;;;;;;;23.44;70.34;101192.41;4890404;28;102516;-89
2021/07/10 08:38:46;;;;;;;8.88;7.97;;;;;;;23.44;70.26;101195.16;4888882;28;102572;-88
2021/07/10 08:41:13;;;;;;;8.98;8.07;;;;;;;23.43;70.35;101199.13;4893268;28;103160;-88
2021/07/10 08:43:43;;;;;;;8.40;7.60;;;;;;;23.43;70.32;101194.38;4872055;28;103770;-87
2021/07/10 08:46:16;;;;;;;9.10;7.78;;;;;;;23.44;70.01;101198.78;4886009;28;102130;-87
2021/07/10 08:48:50;;;;;;;20.55;8.57;;;;;;;23.45;69.16;101194.84;4882366;28;102671;-88
2021/07/10 08:51:17;;;;;;;18.48;7.85;;;;;;;23.45;69.62;101199.59;4912438;28;102533;-85
2021/07/10 08:53:44;;;;;;;10.95;7.57;;;;;;;23.45;69.97;101194.03;4897342;28;102702;-85
2021/07/10 08:56:10;;;;;;;8.75;7.70;;;;;;;23.45;70.17;101194.03;4922356;28;101976;-86
2021/07/10 08:58:39;;;;;;;12.77;7.70;;;;;;;23.43;70.00;101191.59;4885095;28;102600;-90
2021/07/10 09:01:07;;;;;;;9.52;7.85;;;;;;;23.44;70.05;101192.41;4896693;28;103035;-84
2021/07/10 09:03:34;;;;;;;7.80;7.15;;;;;;;23.44;70.24;101196.00;4895687;28;102528;-86
2021/07/10 09:06:04;;;;;;;8.38;7.25;;;;;;;23.45;70.33;101196.81;4900482;28;102354;-88
2021/07/10 09:08:32;;;;;;;8.55;7.75;;;;;;;23.44;70.39;101186.84;4892166;28;102107;-88
2021/07/10 09:11:18;;;;;;;10.17;7.67;;;;;;;23.42;70.60;101189.97;4887632;28;102238;-87
2021/07/10 09:13:50;;;;;;;10.50;7.65;;;;;;;23.46;68.88;101195.66;4904183;28;103981;-88
2021/07/10 09:16:25;;;;;;;10.15;8.25;;;;;;;23.45;69.15;101199.59;4933885;28;102398;-88
2021/07/10 09:19:01;;;;;;;11.77;8.02;;;;;;;23.45;69.30;101194.03;4896011;28;102654;-91
2021/07/10 09:21:41;;;;;;;9.02;7.90;;;;;;;23.45;70.03;101194.03;4900432;28;102896;-86
2021/07/10 09:24:11;;;;;;;9.40;8.40;;;;;;;23.44;69.93;101192.41;4909931;28;103912;-87
2021/07/10 09:26:42;;;;;;;9.82;8.55;;;;;;;23.42;70.12;101189.16;4885791;28;102210;-88
2021/07/10 09:29:11;;;;;;;9.45;7.70;;;;;;;23.43;70.16;101179.66;4894025;28;102684;-86
2021/07/10 09:31:42;;;;;;;9.20;8.25;;;;;;;23.43;70.14;101190.78;4892854;28;102327;-89
2021/07/10 09:34:12;;;;;;;9.52;8.02;;;;;;;23.40;70.35;101183.13;4900444;28;103097;-88
2021/07/10 09:37:01;;;;;;;8.77;7.82;;;;;;;23.38;70.60;101183.50;4888275;28;102240;-91
2021/07/10 09:39:30;;;;;;;9.68;7.40;;;;;;;23.37;70.34;101181.88;4907130;28;102936;-89
2021/07/10 09:41:58;;;;;;;8.52;7.72;;;;;;;23.41;69.80;101184.78;4898635;28;102172;-84
2021/07/10 09:44:41;;;;;;;13.13;8.40;;;;;;;23.48;68.42;101182.22;4889443;28;104134;-86
2021/07/10 09:47:10;;;;;;;13.98;7.80;;;;;;;23.46;69.18;101173.44;4891517;28;102062;-84
2021/07/10 09:49:37;;;;;;;11.88;8.23;;;;;;;23.46;69.35;101177.00;4895298;28;102158;-82
2021/07/10 09:52:08;;;;;;;12.75;8.88;;;;;;;23.47;69.30;101180.59;4895719;28;103446;-84
2021/07/10 09:54:38;;;;;;;12.23;8.43;;;;;;;23.46;69.71;101179.78;4902774;28;104122;-84
2021/07/10 09:57:09;;;;;;;10.02;8.43;;;;;;;23.45;69.64;101177.38;4895674;28;102626;-85
2021/07/10 09:59:38;;;;;;;9.35;8.27;;;;;;;23.42;69.87;101178.06;4886693;28;102150;-84
2021/07/10 10:02:13;;;;;;;8.75;7.47;;;;;;;23.40;70.05;101170.06;4894554;28;103363;-85
2021/07/10 10:04:40;;;;;;;9.25;8.35;;;;;;;23.38;70.04;101166.03;4914672;28;103843;-83
2021/07/10 10:07:13;;;;;;;13.23;8.52;;;;;;;23.37;70.09;101165.22;4892148;28;102073;-83
2021/07/10 10:09:40;;;;;;;8.50;7.63;;;;;;;23.36;70.31;101174.69;4899674;28;102133;-83
2021/07/10 10:12:11;;;;;;;9.75;8.40;;;;;;;23.35;70.19;101161.16;4910784;28;102185;-82
2021/07/10 10:14:43;;;;;;;10.52;8.88;;;;;;;23.35;70.14;101163.94;4891149;28;104036;-82
2021/07/10 10:17:10;;;;;;;9.55;8.65;;;;;;;23.37;70.54;101159.66;4891545;28;103203;-84
2021/07/10 10:19:37;;;;;;;10.00;9.00;;;;;;;23.37;70.28;101148.56;4895599;28;104650;-83
2021/07/10 10:22:06;;;;;;;9.85;8.85;;;;;;;23.38;70.13;101150.16;4883861;28;103456;-83
2021/07/10 10:24:35;;;;;;;11.30;8.50;;;;;;;23.39;70.16;101148.19;4896280;28;102707;-84
2021/07/10 10:27:03;;;;;;;10.07;9.07;;;;;;;23.38;70.25;101152.94;4886282;28;102578;-84
2021/07/10 10:29:32;;;;;;;8.98;7.82;;;;;;;23.35;70.55;101152.84;4889913;28;102782;-85
2021/07/10 10:32:01;;;;;;;9.27;8.15;;;;;;;23.32;70.92;101153.53;4915320;28;102644;-85
2021/07/10 10:34:27;;;;;;;9.43;8.52;;;;;;;23.32;70.71;101156.31;4889260;28;103793;-85
2021/07/10 10:36:56;;;;;;;9.40;8.45;;;;;;;23.32;70.54;101150.75;4894801;28;102517;-85
2021/07/10 10:39:26;;;;;;;9.25;8.43;;;;;;;23.30;71.04;101147.50;4890272;28;102059;-85
2021/07/10 10:42:19;;;;;;;9.90;8.77;;;;;;;23.26;71.25;101142.66;4891285;28;102333;-85
2021/07/10 10:44:48;;;;;;;10.88;8.80;;;;;;;23.26;70.88;101151.00;4888121;28;103860;-85
2021/07/10 10:47:15;;;;;;;9.25;8.45;;;;;;;23.30;71.12;101141.94;4890950;28;102045;-84
2021/07/10 10:49:46;;;;;;;9.95;8.45;;;;;;;23.27;71.17;101141.50;4896009;28;102377;-85
2021/07/10 10:52:29;;;;;;;10.05;9.05;;;;;;;23.23;71.22;101131.44;4893815;28;102569;-85
2021/07/10 10:54:58;;;;;;;9.88;8.98;;;;;;;23.21;71.33;101128.19;4899072;28;103995;-85
2021/07/10 10:57:51;;;;;;;9.13;8.23;;;;;;;23.19;71.30;101134.09;4890488;28;102403;-85
2021/07/10 11:00:32;;;;;;;10.10;9.10;;;;;;;23.18;71.45;101139.97;4965423;28;102298;-85
2021/07/10 11:03:05;;;;;;;10.73;9.73;;;;;;;23.20;71.05;101135.72;4888829;28;102277;-85
2021/07/10 11:05:37;;;;;;;10.13;9.30;;;;;;;23.25;70.93;101141.03;4893162;28;102720;-85
2021/07/10 11:08:26;;;;;;;10.25;9.25;;;;;;;23.29;70.58;101129.22;4941051;28;102570;-85
2021/07/10 11:11:31;;;;;;;9.57;8.68;;;;;;;23.23;70.97;101121.13;4916148;28;102388;-85
2021/07/10 11:14:13;;;;;;;10.90;9.25;;;;;;;23.21;71.31;101126.22;4887249;28;102301;-85
2021/07/10 11:17:10;;;;;;;10.00;9.07;;;;;;;23.20;71.45;101132.13;4880946;28;103865;-85
2021/07/10 11:19:51;;;;;;;10.75;9.77;;;;;;;23.26;70.67;101137.09;4902546;28;102644;-85
2021/07/10 11:22:55;;;;;;;10.27;9.38;;;;;;;23.30;70.58;101128.06;4904002;28;102337;-86
2021/07/10 11:25:57;;;;;;;9.82;8.93;;;;;;;23.24;71.25;101125.53;4920666;28;103901;-85